Weather History for KBUU - May, 2014

Change the Weather History Date:

Thursday, May 15, 2014

  Actual Average (KENW) Record (KENW)
Temperature  
Mean Temperature 43 °F -  
Max Temperature 52 °F 62 °F 87 °F (1951)
Min Temperature 35 °F 45 °F 34 °F (1984)
Degree Days  
Heating Degree Days 22    
Moisture  
Dew Point 36 °F    
Average Humidity 79    
Maximum Humidity 95    
Minimum Humidity 50    
Precipitation  
Precipitation 0.16 in - - ()
Sea Level Pressure  
Sea Level Pressure 30.00 in    
Wind  
Wind Speed 9 mph (NNE)    
Max Wind Speed 18 mph    
Max Gust Speed 26 mph    
Visibility 9 miles    
Events Rain    
Averages and records for this station are not official NWS values.
T = Trace of Precipitation, MM = Missing Value Source: NWS Daily Summary

Daily Weather History Graph

Daily Weather History Graph

Search for Another Location

Airport or City:

Trip Planner

Search our weather history database for the weather conditions in past years. The results will help you decide how hot, cold, wet, or windy it might be!

Date:

Astronomy

May. 15, 2014 Rise Set
Actual Time 5:30 AM CDT 8:08 PM CDT
Civil Twilight 4:58 AM CDT 8:41 PM CDT
Nautical Twilight 4:17 AM CDT 9:22 PM CDT
Astronomical Twilight 3:31 AM CDT 10:08 PM CDT
Moon 9:16 PM CDT (5/15) 6:17 AM CDT (5/15)
Length of Visible Light 15h 42m
Length of Day
14h 38m
Full, 99% of the Moon is Illuminated
May 15
Full
May 21
Last Quarter
May 28
New
Jun 5
First Quarter
Jun 12
Full

Hourly Weather History & Observations

Time (CDT) Temp. Windchill Dew Point Humidity Pressure Visibility Wind Dir Wind Speed Gust Speed Precip Events Conditions
12:15 AM 45.7 °F 43.4 °F 38.5 °F 76% 30.04 in 7.0 mi NE 4.6 mph - N/A Rain Light Rain
12:35 AM 43.7 °F 38.6 °F 38.5 °F 82% 30.04 in 5.0 mi NE 9.2 mph - 0.02 in Rain Rain
12:55 AM 42.8 °F 39.3 °F 39.2 °F 87% 30.02 in 5.0 mi North 5.8 mph - 0.03 in Rain Rain
1:15 AM 41.9 °F 36.9 °F 38.1 °F 86% 30.01 in 7.0 mi North 8.1 mph - 0.01 in Rain Light Rain
1:35 AM 41.4 °F 38.4 °F 38.5 °F 89% 29.99 in 7.0 mi North 4.6 mph - 0.01 in Rain Light Rain
1:55 AM 41.2 °F 36.6 °F 38.7 °F 91% 29.99 in 10.0 mi North 6.9 mph - 0.01 in   Drizzle
2:15 AM 41.2 °F 35.5 °F 38.5 °F 90% 29.99 in 7.0 mi North 9.2 mph 16.1 mph N/A Rain Light Rain
2:35 AM 41.4 °F 35.2 °F 38.5 °F 89% 29.97 in 7.0 mi North 10.4 mph - 0.01 in Rain Light Rain
2:55 AM 41.0 °F 34.7 °F 38.3 °F 90% 29.97 in 5.0 mi North 10.4 mph 17.3 mph 0.01 in Rain Light Rain
3:15 AM 41.0 °F 35.2 °F 38.7 °F 91% 29.96 in 7.0 mi North 9.2 mph 17.3 mph 0.01 in Rain Light Rain
3:35 AM 40.6 °F 32.7 °F 39.0 °F 94% 29.96 in 5.0 mi North 15.0 mph - 0.01 in Rain Light Rain
3:55 AM 40.6 °F 33.0 °F 39.2 °F 95% 29.96 in 7.0 mi North 13.8 mph - 0.02 in Rain Light Rain
4:15 AM 40.1 °F 31.6 °F 38.3 °F 93% 29.95 in 7.0 mi North 16.1 mph 20.7 mph 0.01 in   Overcast
4:35 AM 39.6 °F 32.5 °F 37.8 °F 93% 29.96 in 7.0 mi North 11.5 mph 23.0 mph 0.02 in   Overcast
4:55 AM 38.8 °F 29.4 °F 37.4 °F 95% 29.96 in 7.0 mi North 18.4 mph 25.3 mph 0.03 in   Overcast
5:15 AM 38.5 °F 30.7 °F 36.9 °F 94% 29.96 in 5.0 mi NNE 12.7 mph 20.7 mph 0.01 in   Overcast
5:35 AM 38.3 °F 30.5 °F 36.9 °F 95% 29.97 in 7.0 mi North 12.7 mph 19.6 mph 0.02 in   Overcast
5:55 AM 38.3 °F 30.5 °F 36.7 °F 94% 29.97 in 7.0 mi North 12.7 mph 17.3 mph 0.02 in   Overcast
6:15 AM 38.3 °F 31.4 °F 36.5 °F 93% 29.97 in 10.0 mi North 10.4 mph 20.7 mph N/A   Overcast
6:35 AM 38.3 °F 29.7 °F 36.5 °F 93% 29.97 in 7.0 mi North 15.0 mph 19.6 mph 0.01 in   Overcast
6:55 AM 38.3 °F 29.7 °F 36.3 °F 93% 29.97 in 7.0 mi North 15.0 mph 19.6 mph 0.02 in   Overcast
7:15 AM 38.1 °F 31.7 °F 36.1 °F 93% 29.97 in 7.0 mi North 9.2 mph 19.6 mph N/A   Overcast
7:35 AM 37.9 °F 31.5 °F 36.0 °F 93% 29.98 in 10.0 mi North 9.2 mph - N/A   Overcast
7:55 AM 37.8 °F 31.3 °F 35.8 °F 93% 29.99 in 10.0 mi North 9.2 mph - N/A   Overcast
8:15 AM 37.9 °F 30.9 °F 36.1 °F 93% 29.98 in 7.0 mi North 10.4 mph - 0.01 in   Overcast
8:35 AM 38.1 °F 31.7 °F 36.0 °F 92% 29.99 in 7.0 mi NNW 9.2 mph - 0.01 in   Overcast
8:55 AM 38.3 °F 30.9 °F 36.0 °F 91% 29.99 in 7.0 mi North 11.5 mph - 0.01 in   Overcast
9:15 AM 39.0 °F 31.4 °F 37.2 °F 93% 29.99 in 7.0 mi NNW 12.7 mph - N/A   Overcast
9:35 AM 38.8 °F 31.2 °F 36.9 °F 93% 29.99 in 10.0 mi NNW 12.7 mph 16.1 mph N/A   Overcast
9:55 AM 39.2 °F 33.0 °F 37.0 °F 92% 29.99 in 10.0 mi NNW 9.2 mph 18.4 mph 0.01 in   Overcast
10:15 AM 40.3 °F 34.4 °F 38.1 °F 92% 29.99 in 10.0 mi NNW 9.2 mph - N/A   Overcast
10:55 AM 43.2 °F 37.9 °F 38.7 °F 84% 29.98 in 10.0 mi NNW 9.2 mph - N/A   Mostly Cloudy
11:15 AM 44.6 °F 38.4 °F 38.3 °F 79% 29.97 in 10.0 mi NNW 12.7 mph 17.3 mph N/A   Mostly Cloudy
11:35 AM 45.7 °F 39.8 °F 38.3 °F 75% 29.97 in 10.0 mi NNW 12.7 mph 17.3 mph N/A   Scattered Clouds
11:55 AM 47.8 °F - 39.2 °F 72% 29.96 in 10.0 mi North 11.5 mph 19.6 mph N/A   Clear
12:35 PM 49.1 °F - 37.4 °F 64% 29.97 in 10.0 mi NW 12.7 mph 18.4 mph N/A   Scattered Clouds
12:55 PM 50.2 °F - 34.7 °F 55% 29.97 in 10.0 mi North 13.8 mph 26.5 mph N/A   Scattered Clouds
1:15 PM 50.2 °F - 35.2 °F 57% 29.97 in 10.0 mi NNW 12.7 mph 24.2 mph N/A   Mostly Cloudy
2:15 PM 49.8 °F - 34.9 °F 56% 29.98 in 10.0 mi NW 16.1 mph 23.0 mph N/A   Mostly Cloudy
2:35 PM 50.0 °F - 36.3 °F 59% 29.98 in 10.0 mi NW 13.8 mph 19.6 mph N/A   Overcast
2:55 PM 49.1 °F - 34.3 °F 57% 29.98 in 10.0 mi NNW 15.0 mph - N/A   Overcast
3:15 PM 50.0 °F - 33.1 °F 52% 29.98 in 10.0 mi NW 13.8 mph 19.6 mph N/A   Mostly Cloudy
3:35 PM 51.1 °F - 33.6 °F 51% 29.98 in 10.0 mi NW 11.5 mph - N/A   Mostly Cloudy
3:55 PM 50.2 °F - 32.5 °F 51% 29.98 in 10.0 mi NNW 9.2 mph - N/A   Mostly Cloudy
4:15 PM 50.5 °F - 32.9 °F 51% 29.98 in 10.0 mi NNW 9.2 mph - N/A   Overcast
4:35 PM 51.1 °F - 33.6 °F 51% 29.98 in 10.0 mi NNW 9.2 mph - N/A   Overcast
4:55 PM 50.7 °F - 33.4 °F 52% 29.98 in 10.0 mi NW 8.1 mph - N/A   Overcast
5:15 PM 50.4 °F - 34.0 °F 53% 29.98 in 10.0 mi NNE 3.5 mph - N/A   Overcast
5:35 PM 51.6 °F - 33.4 °F 50% 29.98 in 10.0 mi NE 3.5 mph - N/A   Mostly Cloudy
5:55 PM 49.6 °F - 34.5 °F 56% 29.99 in 10.0 mi NE 5.8 mph - N/A   Mostly Cloudy
6:15 PM 50.2 °F - 33.6 °F 53% 29.99 in 10.0 mi ENE 6.9 mph - N/A   Mostly Cloudy
6:35 PM 49.3 °F - 33.3 °F 54% 30.00 in 10.0 mi ENE 3.5 mph - N/A   Scattered Clouds
6:55 PM 46.6 °F - 36.3 °F 67% 30.01 in 10.0 mi East 12.7 mph - N/A   Mostly Cloudy
7:15 PM 45.3 °F 39.7 °F 35.8 °F 69% 30.02 in 10.0 mi ESE 11.5 mph - N/A   Overcast
7:35 PM 43.5 °F 37.5 °F 34.3 °F 70% 30.03 in 10.0 mi East 11.5 mph - N/A   Overcast
7:55 PM 42.3 °F 36.8 °F 33.3 °F 70% 30.04 in 10.0 mi East 9.2 mph - N/A   Mostly Cloudy
8:15 PM 41.2 °F 36.0 °F 33.8 °F 75% 30.04 in 10.0 mi ESE 8.1 mph - N/A   Scattered Clouds
8:35 PM 40.5 °F 35.1 °F 33.6 °F 77% 30.05 in 10.0 mi ESE 8.1 mph - N/A   Scattered Clouds
8:55 PM 39.4 °F 32.7 °F 33.3 °F 79% 30.05 in 10.0 mi ESE 10.4 mph - N/A   Clear
9:15 PM 38.3 °F 31.9 °F 32.9 °F 81% 30.05 in 10.0 mi ESE 9.2 mph - N/A   Clear
9:35 PM 37.6 °F 31.6 °F 32.9 °F 83% 30.06 in 10.0 mi East 8.1 mph - N/A   Clear
9:55 PM 37.4 °F 31.4 °F 32.9 °F 84% 30.06 in 10.0 mi East 8.1 mph - N/A   Clear
10:15 PM 36.5 °F 30.3 °F 32.9 °F 87% 30.07 in 10.0 mi East 8.1 mph - N/A   Clear
10:35 PM 36.0 °F 31.1 °F 32.9 °F 89% 30.07 in 10.0 mi ESE 5.8 mph - N/A   Clear
10:55 PM 35.8 °F 31.9 °F 32.9 °F 89% 30.07 in 10.0 mi ESE 4.6 mph - N/A   Scattered Clouds
11:15 PM 35.2 °F 31.2 °F 32.7 °F 91% 30.06 in 10.0 mi ESE 4.6 mph - N/A   Clear
11:35 PM 35.1 °F 32.2 °F 32.9 °F 92% 30.06 in 10.0 mi ESE 3.5 mph - N/A   Clear
11:55 PM 35.1 °F 30.1 °F 32.9 °F 92% 30.05 in 10.0 mi East 5.8 mph - N/A   Clear